Time;durP1;ratioP1;P1;durP2;ratioP2;P2;SDS_P1;SDS_P2;PMS_P1;PMS_P2;Temp;Humidity;BMP_temperature;BMP_pressure;BME280_temperature;BME280_humidity;BME280_pressure;Samples;Min_cycle;Max_cycle;Signal;HPM_P1;HPM_P2
2023/05/02 00:01:06;;;;;;;;;;;11.80;99.90;;;;;;5074513;28;20467;-76
2023/05/02 00:03:31;;;;;;;;;;;11.70;99.90;;;;;;5070252;28;19932;-76
2023/05/02 00:05:58;;;;;;;;;;;11.70;99.90;;;;;;5073463;28;20018;-76
2023/05/02 00:08:24;;;;;;;;;;;11.70;99.90;;;;;;5076992;28;19985;-76
2023/05/02 00:10:49;;;;;;;;;;;11.80;99.90;;;;;;5072742;28;19924;-76
2023/05/02 00:13:15;;;;;;;;;;;11.80;99.90;;;;;;5075908;28;20011;-76
2023/05/02 00:15:40;;;;;;;;;;;11.80;99.90;;;;;;5073383;28;19934;-76
2023/05/02 00:18:06;;;;;;;;;;;11.90;99.90;;;;;;5074501;28;19928;-76
2023/05/02 00:20:32;;;;;;;;;;;11.90;99.90;;;;;;5070341;28;19933;-76
2023/05/02 00:22:57;;;;;;;;;;;12.00;99.90;;;;;;5073129;28;19927;-76
2023/05/02 00:25:23;;;;;;;;;;;11.90;99.90;;;;;;5073411;28;20326;-76
2023/05/02 00:27:49;;;;;;;;;;;11.90;99.90;;;;;;5075181;28;20587;-76
2023/05/02 00:30:17;;;;;;;;;;;11.90;99.90;;;;;;5072404;28;19924;-76
2023/05/02 00:32:43;;;;;;;;;;;12.00;99.90;;;;;;5070733;28;20016;-76
2023/05/02 00:35:08;;;;;;;;;;;12.00;99.90;;;;;;5073991;28;20001;-76
2023/05/02 00:37:34;;;;;;;;;;;12.10;99.90;;;;;;5069221;28;20414;-76
2023/05/02 00:40:00;;;;;;;;;;;12.10;99.90;;;;;;5071160;28;19939;-76
2023/05/02 00:42:28;;;;;;;;;;;12.10;99.90;;;;;;5071679;28;19928;-76
2023/05/02 00:44:53;;;;;;;;;;;12.10;99.90;;;;;;5071278;28;20054;-76
2023/05/02 00:47:19;;;;;;;;;;;12.00;99.90;;;;;;5068634;28;20328;-76
2023/05/02 00:49:45;;;;;;;;;;;11.90;99.90;;;;;;5067616;28;19929;-76
2023/05/02 00:52:11;;;;;;;;;;;11.90;99.90;;;;;;5066922;28;19935;-77
2023/05/02 00:54:38;;;;;;;;;;;11.90;99.90;;;;;;5070921;28;19946;-76
2023/05/02 00:57:03;;;;;;;;;;;11.90;99.90;;;;;;5052092;28;21077;-76
2023/05/02 00:59:29;;;;;;;;;;;11.80;99.90;;;;;;5071554;28;19989;-77
2023/05/02 01:02:14;;;;;;;;;;;11.80;99.90;;;;;;5064339;28;19954;-75
2023/05/02 01:04:42;;;;;;;;;;;11.70;99.90;;;;;;5069873;28;19928;-77
2023/05/02 01:07:12;;;;;;;;;;;11.70;99.90;;;;;;5068312;28;19925;-77
2023/05/02 01:10:01;;;;;;;;;;;11.70;99.90;;;;;;5069474;28;19924;-76
2023/05/02 01:12:31;;;;;;;;;;;11.60;99.90;;;;;;5069165;28;19925;-76
2023/05/02 01:14:57;;;;;;;;;;;11.50;99.90;;;;;;5072807;28;20385;-76
2023/05/02 01:17:24;;;;;;;;;;;11.50;99.90;;;;;;5072516;28;19981;-76
2023/05/02 01:19:52;;;;;;;;;;;11.40;99.90;;;;;;5074344;28;19935;-76
2023/05/02 01:22:19;;;;;;;;;;;11.40;99.90;;;;;;5064748;28;19974;-76
2023/05/02 01:24:47;;;;;;;;;;;11.40;99.90;;;;;;5075294;28;19934;-76
2023/05/02 01:27:15;;;;;;;;;;;11.30;99.90;;;;;;5072401;28;20270;-76
2023/05/02 01:29:43;;;;;;;;;;;11.10;99.90;;;;;;5074362;28;19971;-76
2023/05/02 01:32:09;;;;;;;;;;;10.90;99.90;;;;;;5069585;28;20074;-76
2023/05/02 01:34:37;;;;;;;;;;;11.00;99.90;;;;;;5072030;28;20110;-76
2023/05/02 01:37:04;;;;;;;;;;;10.90;99.90;;;;;;5074301;28;19970;-76
2023/05/02 01:39:31;;;;;;;;;;;11.00;99.90;;;;;;5070617;28;20355;-76
2023/05/02 01:41:57;;;;;;;;;;;11.10;99.90;;;;;;5072719;28;19928;-77
2023/05/02 01:44:23;;;;;;;;;;;11.20;99.90;;;;;;5076618;28;19940;-77
2023/05/02 01:46:50;;;;;;;;;;;11.00;99.90;;;;;;5071578;28;20317;-76
2023/05/02 01:49:16;;;;;;;;;;;11.10;99.90;;;;;;5074897;28;19924;-76
2023/05/02 01:51:47;;;;;;;;;;;11.10;99.90;;;;;;5069461;28;19929;-76
2023/05/02 01:54:14;;;;;;;;;;;11.20;99.90;;;;;;5066855;28;19932;-76
2023/05/02 01:56:40;;;;;;;;;;;11.00;99.90;;;;;;5069475;28;19935;-76
2023/05/02 01:59:14;;;;;;;;;;;10.90;99.90;;;;;;5071380;28;20469;-77
2023/05/02 02:01:40;;;;;;;;;;;11.00;99.90;;;;;;5067769;28;20289;-77
2023/05/02 02:04:07;;;;;;;;;;;10.90;99.90;;;;;;5074200;28;19929;-76
2023/05/02 02:06:33;;;;;;;;;;;10.80;99.90;;;;;;5072537;28;19928;-76
2023/05/02 02:08:59;;;;;;;;;;;10.90;99.90;;;;;;5073118;28;19935;-76
2023/05/02 02:11:45;;;;;;;;;;;10.80;99.90;;;;;;5075651;28;20658;-76
2023/05/02 02:14:17;;;;;;;;;;;10.70;99.90;;;;;;5070670;28;19932;-76
2023/05/02 02:16:43;;;;;;;;;;;10.90;99.90;;;;;;5071980;28;19928;-76
2023/05/02 02:19:09;;;;;;;;;;;10.80;99.90;;;;;;5073147;28;19943;-76
2023/05/02 02:21:37;;;;;;;;;;;10.70;99.90;;;;;;5070186;28;19928;-76
2023/05/02 02:24:04;;;;;;;;;;;10.70;99.90;;;;;;5070600;28;20648;-76
2023/05/02 02:26:29;;;;;;;;;;;10.80;99.90;;;;;;5075947;28;19928;-76
2023/05/02 02:28:55;;;;;;;;;;;10.70;99.90;;;;;;5072330;28;19942;-76
2023/05/02 02:31:20;;;;;;;;;;;10.70;99.90;;;;;;5071179;28;20019;-76
2023/05/02 02:33:46;;;;;;;;;;;10.70;99.90;;;;;;5073232;28;19973;-76
2023/05/02 02:36:23;;;;;;;;;;;10.80;99.90;;;;;;5075740;28;19939;-76
2023/05/02 02:38:53;;;;;;;;;;;10.80;99.90;;;;;;5072516;28;19928;-76
2023/05/02 02:41:18;;;;;;;;;;;10.70;99.90;;;;;;5070352;28;20461;-76
2023/05/02 02:43:58;;;;;;;;;;;10.60;99.90;;;;;;5073529;28;19928;-76
2023/05/02 02:46:32;;;;;;;;;;;10.60;99.90;;;;;;5071477;28;19928;-76
2023/05/02 02:49:07;;;;;;;;;;;10.70;99.90;;;;;;5067378;28;19929;-76
2023/05/02 02:51:36;;;;;;;;;;;10.80;99.90;;;;;;5074487;28;19990;-76
2023/05/02 02:54:15;;;;;;;;;;;10.70;99.90;;;;;;5074859;28;19928;-76
2023/05/02 02:56:41;;;;;;;;;;;10.70;99.90;;;;;;5072896;28;19932;-76
2023/05/02 02:59:18;;;;;;;;;;;10.70;99.90;;;;;;5069720;28;19924;-76
2023/05/02 03:01:52;;;;;;;;;;;10.60;99.90;;;;;;5071345;28;19924;-76
2023/05/02 03:04:18;;;;;;;;;;;10.70;99.90;;;;;;5073120;28;20149;-76
2023/05/02 03:06:43;;;;;;;;;;;10.50;99.90;;;;;;5075326;28;19929;-76
2023/05/02 03:09:18;;;;;;;;;;;10.60;99.90;;;;;;5068513;28;19939;-76
2023/05/02 03:11:45;;;;;;;;;;;10.60;99.90;;;;;;5069895;28;20429;-77
2023/05/02 03:14:10;;;;;;;;;;;10.70;99.90;;;;;;5072063;28;19931;-76
2023/05/02 03:16:37;;;;;;;;;;;10.70;99.90;;;;;;5073890;28;19932;-76
2023/05/02 03:19:03;;;;;;;;;;;10.60;99.90;;;;;;5074473;28;20484;-76
2023/05/02 03:21:32;;;;;;;;;;;10.60;99.90;;;;;;5069330;28;19935;-76
2023/05/02 03:24:01;;;;;;;;;;;10.60;99.90;;;;;;5067482;28;19971;-77
2023/05/02 03:26:27;;;;;;;;;;;10.40;99.90;;;;;;5074740;28;20339;-76
2023/05/02 03:28:53;;;;;;;;;;;10.20;99.90;;;;;;5071840;28;19928;-77
2023/05/02 03:31:22;;;;;;;;;;;10.00;99.90;;;;;;5067201;28;20459;-75
2023/05/02 03:33:47;;;;;;;;;;;9.60;99.90;;;;;;5070583;28;19932;-76
2023/05/02 03:36:13;;;;;;;;;;;9.70;99.90;;;;;;5066886;28;19928;-76
2023/05/02 03:38:39;;;;;;;;;;;9.50;99.90;;;;;;5070740;28;19928;-76
2023/05/02 03:41:05;;;;;;;;;;;9.20;99.90;;;;;;5068648;28;19940;-76
2023/05/02 03:43:30;;;;;;;;;;;9.30;99.90;;;;;;5073452;28;20035;-76
2023/05/02 03:45:56;;;;;;;;;;;9.30;99.90;;;;;;5071172;28;19963;-76
2023/05/02 03:48:22;;;;;;;;;;;9.20;99.90;;;;;;5073416;28;19955;-77
2023/05/02 03:50:48;;;;;;;;;;;9.20;99.90;;;;;;5069761;28;19954;-77
2023/05/02 03:53:15;;;;;;;;;;;9.10;99.90;;;;;;5068278;28;19928;-77
2023/05/02 03:55:44;;;;;;;;;;;9.00;99.90;;;;;;5068704;28;19928;-77
2023/05/02 03:58:10;;;;;;;;;;;9.00;99.90;;;;;;5072316;28;19969;-77
2023/05/02 04:00:37;;;;;;;;;;;9.00;99.90;;;;;;5069788;28;19936;-78
2023/05/02 04:03:02;;;;;;;;;;;8.80;99.90;;;;;;5067295;28;19985;-77
2023/05/02 04:05:28;;;;;;;;;;;8.80;99.90;;;;;;5070395;28;20303;-78
2023/05/02 04:07:54;;;;;;;;;;;8.80;99.90;;;;;;5071855;28;19928;-78
2023/05/02 04:10:20;;;;;;;;;;;8.80;99.90;;;;;;5072233;28;20474;-77
2023/05/02 04:12:45;;;;;;;;;;;8.80;99.90;;;;;;5074038;28;19956;-77
2023/05/02 04:15:11;;;;;;;;;;;8.80;99.90;;;;;;5071578;28;20234;-76
2023/05/02 04:17:37;;;;;;;;;;;8.80;99.90;;;;;;5068942;28;20266;-76
2023/05/02 04:20:03;;;;;;;;;;;8.80;99.90;;;;;;5067726;28;20731;-77
2023/05/02 04:22:29;;;;;;;;;;;8.80;99.90;;;;;;5063812;28;19931;-76
2023/05/02 04:24:54;;;;;;;;;;;8.70;99.90;;;;;;5068046;28;19925;-76
2023/05/02 04:27:20;;;;;;;;;;;8.60;99.90;;;;;;5069546;28;19980;-77
2023/05/02 04:29:49;;;;;;;;;;;8.70;99.90;;;;;;5069057;28;19939;-77
2023/05/02 04:32:14;;;;;;;;;;;8.60;99.90;;;;;;5073091;28;19932;-76
2023/05/02 04:34:40;;;;;;;;;;;8.70;99.90;;;;;;5068768;28;20262;-77
2023/05/02 04:37:06;;;;;;;;;;;8.80;99.90;;;;;;5058996;28;20023;-77
2023/05/02 04:39:32;;;;;;;;;;;8.70;99.90;;;;;;5073190;28;19997;-77
2023/05/02 04:41:57;;;;;;;;;;;8.50;99.90;;;;;;5076467;28;20001;-76
2023/05/02 04:44:23;;;;;;;;;;;8.50;99.90;;;;;;5072841;28;19928;-77
2023/05/02 04:46:49;;;;;;;;;;;8.50;99.90;;;;;;5076234;28;19969;-77
2023/05/02 04:49:14;;;;;;;;;;;8.50;99.90;;;;;;5072394;28;19939;-77
2023/05/02 04:51:40;;;;;;;;;;;8.30;99.90;;;;;;5074185;28;19924;-77
2023/05/02 04:54:06;;;;;;;;;;;8.30;99.90;;;;;;5076053;28;19934;-77
2023/05/02 04:56:32;;;;;;;;;;;8.30;99.90;;;;;;5071360;28;19974;-77
2023/05/02 04:58:58;;;;;;;;;;;8.30;99.90;;;;;;5073580;28;19960;-77
2023/05/02 05:01:26;;;;;;;;;;;8.30;99.90;;;;;;5077448;28;19928;-77
2023/05/02 05:03:52;;;;;;;;;;;8.40;99.90;;;;;;5073246;28;19929;-77
2023/05/02 05:06:18;;;;;;;;;;;8.30;99.90;;;;;;5073348;28;19982;-77
2023/05/02 05:08:44;;;;;;;;;;;8.30;99.90;;;;;;5072180;28;20054;-77
2023/05/02 05:11:10;;;;;;;;;;;8.30;99.90;;;;;;5075543;28;20530;-77
2023/05/02 05:13:36;;;;;;;;;;;8.40;99.90;;;;;;5075011;28;19970;-77
2023/05/02 05:16:02;;;;;;;;;;;8.20;99.90;;;;;;5069077;28;20023;-76
2023/05/02 05:18:28;;;;;;;;;;;8.20;99.90;;;;;;5074111;28;19950;-78
2023/05/02 05:20:53;;;;;;;;;;;8.20;99.90;;;;;;5071779;28;20420;-77
2023/05/02 05:23:19;;;;;;;;;;;8.40;99.90;;;;;;5067900;28;19925;-77
2023/05/02 05:25:44;;;;;;;;;;;8.40;99.90;;;;;;5074943;28;19924;-77
2023/05/02 05:28:10;;;;;;;;;;;8.30;99.90;;;;;;5075017;28;20323;-77
2023/05/02 05:30:36;;;;;;;;;;;8.40;99.90;;;;;;5069703;28;20430;-77
2023/05/02 05:33:01;;;;;;;;;;;8.60;99.90;;;;;;5073722;28;19928;-76
2023/05/02 05:35:27;;;;;;;;;;;8.50;99.90;;;;;;5078747;28;20430;-77
2023/05/02 05:37:53;;;;;;;;;;;8.60;99.90;;;;;;5074475;28;20352;-77
2023/05/02 05:40:20;;;;;;;;;;;8.50;99.90;;;;;;5067670;28;19928;-77
2023/05/02 05:42:45;;;;;;;;;;;8.60;99.90;;;;;;5072399;28;20007;-75
2023/05/02 05:45:11;;;;;;;;;;;8.60;99.90;;;;;;5073424;28;20050;-78
2023/05/02 05:47:36;;;;;;;;;;;8.60;99.90;;;;;;5073544;28;19924;-76
2023/05/02 05:50:02;;;;;;;;;;;8.80;99.90;;;;;;5072460;28;20013;-76
2023/05/02 05:52:28;;;;;;;;;;;8.70;99.90;;;;;;5070752;28;20293;-77
2023/05/02 05:54:56;;;;;;;;;;;8.70;99.90;;;;;;5070736;28;19928;-78
2023/05/02 05:57:22;;;;;;;;;;;8.70;99.90;;;;;;5064878;28;20400;-77
2023/05/02 05:59:48;;;;;;;;;;;8.70;99.90;;;;;;5072127;28;20576;-77
2023/05/02 06:02:14;;;;;;;;;;;8.70;99.90;;;;;;5035498;28;20632;-77
2023/05/02 06:04:40;;;;;;;;;;;8.80;99.90;;;;;;5054886;28;20628;-76
2023/05/02 06:07:05;;;;;;;;;;;8.60;99.90;;;;;;5059032;28;20435;-79
2023/05/02 06:09:31;;;;;;;;;;;8.70;99.90;;;;;;5057566;28;20433;-77
2023/05/02 06:11:56;;;;;;;;;;;8.50;99.90;;;;;;5054828;28;19928;-77
2023/05/02 06:14:22;;;;;;;;;;;8.50;99.90;;;;;;5073312;28;19932;-78
2023/05/02 06:16:47;;;;;;;;;;;8.70;99.90;;;;;;5068044;28;19932;-77
2023/05/02 06:19:14;;;;;;;;;;;8.70;99.90;;;;;;5055531;28;19960;-77
2023/05/02 06:21:39;;;;;;;;;;;8.80;99.90;;;;;;5067960;28;19932;-76
2023/05/02 06:24:05;;;;;;;;;;;8.80;99.90;;;;;;5071087;28;20381;-77
2023/05/02 06:26:31;;;;;;;;;;;9.00;99.90;;;;;;5072967;28;19977;-77
2023/05/02 06:28:56;;;;;;;;;;;9.20;99.90;;;;;;5070482;28;19927;-76
2023/05/02 06:31:22;;;;;;;;;;;9.10;99.90;;;;;;5070829;28;19963;-78
2023/05/02 06:33:47;;;;;;;;;;;9.20;99.90;;;;;;5075248;28;20419;-76
2023/05/02 06:36:13;;;;;;;;;;;9.30;99.90;;;;;;5069007;28;19929;-76
2023/05/02 06:38:38;;;;;;;;;;;9.30;99.90;;;;;;5072491;28;19932;-77
2023/05/02 06:41:04;;;;;;;;;;;9.20;99.90;;;;;;5069712;28;20377;-77
2023/05/02 06:43:30;;;;;;;;;;;9.50;99.90;;;;;;5069748;28;20286;-77
2023/05/02 06:45:55;;;;;;;;;;;9.80;99.90;;;;;;5070514;28;20041;-76
2023/05/02 06:48:21;;;;;;;;;;;10.10;99.90;;;;;;5076069;28;20622;-77
2023/05/02 06:50:47;;;;;;;;;;;10.40;99.90;;;;;;5071439;28;19928;-77
2023/05/02 06:53:12;;;;;;;;;;;10.40;99.90;;;;;;5072325;28;19928;-77
2023/05/02 06:55:38;;;;;;;;;;;10.30;99.90;;;;;;5073199;28;20596;-77
2023/05/02 06:58:03;;;;;;;;;;;10.20;99.90;;;;;;5066572;28;19932;-77
2023/05/02 07:00:29;;;;;;;;;;;10.00;99.90;;;;;;5070602;28;19983;-77
2023/05/02 07:02:55;;;;;;;;;;;9.90;99.90;;;;;;5070199;28;20597;-77
2023/05/02 07:05:20;;;;;;;;;;;9.60;99.90;;;;;;5072682;28;19932;-77
2023/05/02 07:07:46;;;;;;;;;;;9.60;99.90;;;;;;5072558;28;19938;-78
2023/05/02 07:10:11;;;;;;;;;;;9.40;99.90;;;;;;5070757;28;19932;-77
2023/05/02 07:12:38;;;;;;;;;;;9.40;99.90;;;;;;5069465;28;19979;-76
2023/05/02 07:15:07;;;;;;;;;;;9.50;99.90;;;;;;5074324;28;19924;-76
2023/05/02 07:17:32;;;;;;;;;;;9.60;99.90;;;;;;5072678;28;19935;-76
2023/05/02 07:19:58;;;;;;;;;;;9.50;99.90;;;;;;5064278;28;19927;-77
2023/05/02 07:22:23;;;;;;;;;;;9.40;99.90;;;;;;5065065;28;20477;-77
2023/05/02 07:24:56;;;;;;;;;;;9.30;99.90;;;;;;5068004;28;19924;-76
2023/05/02 07:27:21;;;;;;;;;;;9.10;99.90;;;;;;5064109;28;19928;-77
2023/05/02 07:29:47;;;;;;;;;;;9.10;99.90;;;;;;5070191;28;20507;-76
2023/05/02 07:32:12;;;;;;;;;;;9.00;99.90;;;;;;5067836;28;20301;-77
2023/05/02 07:34:38;;;;;;;;;;;9.20;99.90;;;;;;5065969;28;20024;-77
2023/05/02 07:37:03;;;;;;;;;;;8.90;99.90;;;;;;5064898;28;19928;-76
2023/05/02 07:39:31;;;;;;;;;;;9.10;99.90;;;;;;5070964;28;19927;-77
2023/05/02 07:41:57;;;;;;;;;;;9.10;99.90;;;;;;5073829;28;20270;-77
2023/05/02 07:44:23;;;;;;;;;;;9.20;99.90;;;;;;5070170;28;19939;-77
2023/05/02 07:46:48;;;;;;;;;;;9.40;99.90;;;;;;5073175;28;19931;-77
2023/05/02 07:49:14;;;;;;;;;;;9.20;99.90;;;;;;5070383;28;19955;-77
2023/05/02 07:51:39;;;;;;;;;;;9.20;99.90;;;;;;5069609;28;19924;-77
2023/05/02 07:54:15;;;;;;;;;;;9.30;99.90;;;;;;5072163;28;20019;-77
2023/05/02 07:56:41;;;;;;;;;;;9.40;99.90;;;;;;5074774;28;19951;-76
2023/05/02 07:59:07;;;;;;;;;;;9.40;99.90;;;;;;5070501;28;19930;-77
2023/05/02 08:01:32;;;;;;;;;;;9.70;99.90;;;;;;5071748;28;19943;-78
2023/05/02 08:03:58;;;;;;;;;;;9.60;99.90;;;;;;5043395;28;20373;-78
2023/05/02 08:06:24;;;;;;;;;;;9.70;99.90;;;;;;5059625;28;19970;-79
2023/05/02 08:08:49;;;;;;;;;;;10.00;99.90;;;;;;5043441;28;19932;-77
2023/05/02 08:11:15;;;;;;;;;;;9.70;99.90;;;;;;5065309;28;20680;-77
2023/05/02 08:13:40;;;;;;;;;;;9.60;99.90;;;;;;5071588;28;19931;-78
2023/05/02 08:16:07;;;;;;;;;;;9.80;99.90;;;;;;5070886;28;19928;-77
2023/05/02 08:18:33;;;;;;;;;;;9.80;99.90;;;;;;5060201;28;19932;-78
2023/05/02 08:20:58;;;;;;;;;;;9.80;99.90;;;;;;5071454;28;19924;-77
2023/05/02 08:23:24;;;;;;;;;;;9.80;99.90;;;;;;5072097;28;19986;-78
2023/05/02 08:25:49;;;;;;;;;;;9.60;99.90;;;;;;5068168;28;20412;-78
2023/05/02 08:28:15;;;;;;;;;;;9.60;99.90;;;;;;5070275;28;19928;-78
2023/05/02 08:30:40;;;;;;;;;;;9.60;99.90;;;;;;5074283;28;19954;-77
2023/05/02 08:33:06;;;;;;;;;;;9.60;99.90;;;;;;5074244;28;19928;-77
2023/05/02 08:35:31;;;;;;;;;;;9.80;99.90;;;;;;5069751;28;19939;-76
2023/05/02 08:37:57;;;;;;;;;;;9.80;99.90;;;;;;5068827;28;19936;-77
2023/05/02 08:40:23;;;;;;;;;;;9.80;99.90;;;;;;5073414;28;20394;-77
2023/05/02 08:42:49;;;;;;;;;;;9.80;99.90;;;;;;5064467;28;19929;-78
2023/05/02 08:45:14;;;;;;;;;;;10.10;99.90;;;;;;5038165;28;19971;-77
2023/05/02 08:47:41;;;;;;;;;;;9.90;99.90;;;;;;5067258;28;20010;-77
2023/05/02 08:50:10;;;;;;;;;;;9.70;99.90;;;;;;5072196;28;19935;-77
2023/05/02 08:52:36;;;;;;;;;;;9.60;99.90;;;;;;5070596;28;19935;-77
2023/05/02 08:55:02;;;;;;;;;;;9.80;99.90;;;;;;5066879;28;20037;-77
2023/05/02 08:57:29;;;;;;;;;;;9.80;99.90;;;;;;5067893;28;19936;-78
2023/05/02 08:59:55;;;;;;;;;;;10.00;99.90;;;;;;5072703;28;19989;-76
2023/05/02 09:02:36;;;;;;;;;;;9.70;99.90;;;;;;5072269;28;20408;-76
2023/05/02 09:05:05;;;;;;;;;;;9.70;99.90;;;;;;5073505;28;19928;-78
2023/05/02 09:07:41;;;;;;;;;;;9.80;99.90;;;;;;5073848;28;19924;-77
2023/05/02 09:10:07;;;;;;;;;;;10.40;99.90;;;;;;5066955;28;19928;-78
2023/05/02 09:12:32;;;;;;;;;;;10.90;99.90;;;;;;5071829;28;19985;-78
2023/05/02 09:15:08;;;;;;;;;;;11.10;99.90;;;;;;5069357;28;20020;-77
2023/05/02 09:17:43;;;;;;;;;;;11.20;99.90;;;;;;5068811;28;20390;-76
2023/05/02 09:20:10;;;;;;;;;;;11.30;99.90;;;;;;5056095;28;19932;-76
2023/05/02 09:22:36;;;;;;;;;;;11.90;99.90;;;;;;5073081;28;20019;-77
2023/05/02 09:25:03;;;;;;;;;;;12.00;99.90;;;;;;5074902;28;19963;-76
2023/05/02 09:27:28;;;;;;;;;;;12.10;99.90;;;;;;5070462;28;20411;-76
2023/05/02 09:30:14;;;;;;;;;;;13.00;99.90;;;;;;5075133;28;19928;-76
2023/05/02 09:32:46;;;;;;;;;;;13.10;99.90;;;;;;5070369;28;20059;-77
2023/05/02 09:35:13;;;;;;;;;;;11.80;99.90;;;;;;5075156;28;19935;-77
2023/05/02 09:37:38;;;;;;;;;;;11.90;99.90;;;;;;5073364;28;19971;-77
2023/05/02 09:40:04;;;;;;;;;;;11.50;99.90;;;;;;5075157;28;19975;-77
2023/05/02 09:42:31;;;;;;;;;;;11.60;99.90;;;;;;5073778;28;19925;-78
2023/05/02 09:44:57;;;;;;;;;;;11.70;99.90;;;;;;5074348;28;20666;-77
2023/05/02 09:47:26;;;;;;;;;;;11.90;99.90;;;;;;5071120;28;19940;-77
2023/05/02 09:49:51;;;;;;;;;;;11.20;99.90;;;;;;5077141;28;19928;-77
2023/05/02 09:52:20;;;;;;;;;;;11.90;99.90;;;;;;5073300;28;20306;-77
2023/05/02 09:54:46;;;;;;;;;;;11.90;99.90;;;;;;5073713;28;19924;-76
2023/05/02 09:57:11;;;;;;;;;;;12.40;99.90;;;;;;5074993;28;20300;-77
2023/05/02 09:59:40;;;;;;;;;;;12.30;99.90;;;;;;5075423;28;19935;-76
2023/05/02 10:02:08;;;;;;;;;;;11.90;99.90;;;;;;5074588;28;20028;-77
2023/05/02 10:04:34;;;;;;;;;;;12.00;99.90;;;;;;5077194;28;19924;-77
2023/05/02 10:07:00;;;;;;;;;;;12.00;99.90;;;;;;5075326;28;20653;-78
2023/05/02 10:09:27;;;;;;;;;;;12.10;99.90;;;;;;5058281;28;19928;-77
2023/05/02 10:11:54;;;;;;;;;;;12.20;99.90;;;;;;5075096;28;19932;-77
2023/05/02 10:14:21;;;;;;;;;;;11.90;99.90;;;;;;5076603;28;19928;-77
2023/05/02 10:16:56;;;;;;;;;;;11.60;99.90;;;;;;5072731;28;19928;-77
2023/05/02 10:19:28;;;;;;;;;;;12.20;99.90;;;;;;5076376;28;20385;-78
2023/05/02 10:21:55;;;;;;;;;;;12.20;99.90;;;;;;5066943;28;20565;-77
2023/05/02 10:24:20;;;;;;;;;;;11.60;99.90;;;;;;5071933;28;19935;-77
2023/05/02 10:26:47;;;;;;;;;;;11.40;99.90;;;;;;5070287;28;20297;-77
2023/05/02 10:29:12;;;;;;;;;;;11.70;99.90;;;;;;5075335;28;20006;-77
2023/05/02 10:31:39;;;;;;;;;;;11.60;99.90;;;;;;5073141;28;19943;-77
2023/05/02 10:34:09;;;;;;;;;;;11.20;99.90;;;;;;5074191;28;19924;-77
2023/05/02 10:36:35;;;;;;;;;;;11.50;99.90;;;;;;5072735;28;19932;-79
2023/05/02 10:39:01;;;;;;;;;;;11.70;99.90;;;;;;5070905;28;19924;-77
2023/05/02 10:41:27;;;;;;;;;;;11.90;99.90;;;;;;5074065;28;19954;-78
2023/05/02 10:43:53;;;;;;;;;;;11.90;99.90;;;;;;5075399;28;20015;-78
2023/05/02 10:46:35;;;;;;;;;;;11.90;99.90;;;;;;5068514;28;20357;-77
2023/05/02 10:49:01;;;;;;;;;;;12.30;99.90;;;;;;5069204;28;19924;-77
2023/05/02 10:51:30;;;;;;;;;;;12.20;99.90;;;;;;5070170;28;19970;-77
2023/05/02 10:54:14;;;;;;;;;;;11.70;99.90;;;;;;5072251;28;19967;-76
2023/05/02 10:57:06;;;;;;;;;;;12.30;99.90;;;;;;5061223;28;20530;-77
2023/05/02 10:59:36;;;;;;;;;;;12.80;99.90;;;;;;5054200;28;19981;-76
2023/05/02 11:02:03;;;;;;;;;;;12.80;99.90;;;;;;5062911;28;19928;-79
2023/05/02 11:04:57;;;;;;;;;;;13.10;99.90;;;;;;5066324;28;19936;-77
2023/05/02 11:07:23;;;;;;;;;;;12.40;99.90;;;;;;5067858;28;19932;-77
2023/05/02 11:09:48;;;;;;;;;;;12.10;99.90;;;;;;5069090;28;20423;-76
2023/05/02 11:12:34;;;;;;;;;;;12.50;99.90;;;;;;5064795;28;19928;-76
2023/05/02 11:15:00;;;;;;;;;;;12.70;99.90;;;;;;5067856;28;20593;-76
2023/05/02 11:17:25;;;;;;;;;;;12.80;99.90;;;;;;5071700;28;19971;-76
2023/05/02 11:19:54;;;;;;;;;;;13.00;99.90;;;;;;5075305;28;20035;-76
2023/05/02 11:22:20;;;;;;;;;;;13.00;99.90;;;;;;5068845;28;19971;-76
2023/05/02 11:24:46;;;;;;;;;;;13.60;99.90;;;;;;5073765;28;20591;-77
2023/05/02 11:27:37;;;;;;;;;;;13.80;99.90;;;;;;5067190;28;19972;-77
2023/05/02 11:30:07;;;;;;;;;;;14.30;99.90;;;;;;5073565;28;19932;-76
2023/05/02 11:32:42;;;;;;;;;;;13.60;99.90;;;;;;5064382;28;19936;-76
2023/05/02 11:35:13;;;;;;;;;;;13.80;99.90;;;;;;5069159;28;20659;-77
2023/05/02 11:37:39;;;;;;;;;;;14.30;99.90;;;;;;5068191;28;19928;-77
2023/05/02 11:40:11;;;;;;;;;;;14.30;99.90;;;;;;5058964;28;20001;-77
2023/05/02 11:42:37;;;;;;;;;;;14.50;99.90;;;;;;5057016;28;19944;-77
2023/05/02 11:45:03;;;;;;;;;;;14.20;99.90;;;;;;5072635;28;19932;-78
2023/05/02 11:47:31;;;;;;;;;;;14.60;99.90;;;;;;5071677;28;20543;-79
2023/05/02 11:49:59;;;;;;;;;;;14.90;99.90;;;;;;5076801;28;20411;-77
2023/05/02 11:52:24;;;;;;;;;;;14.70;99.90;;;;;;5063581;28;20344;-77
2023/05/02 11:54:54;;;;;;;;;;;14.30;99.90;;;;;;5059528;28;19928;-78
2023/05/02 11:57:20;;;;;;;;;;;14.70;99.90;;;;;;5069738;28;19928;-77
2023/05/02 11:59:51;;;;;;;;;;;14.40;99.90;;;;;;5077035;28;19924;-77
2023/05/02 12:02:16;;;;;;;;;;;14.90;99.90;;;;;;5074853;28;19928;-77
2023/05/02 12:04:45;;;;;;;;;;;14.70;99.90;;;;;;5078412;28;19924;-77
2023/05/02 12:07:10;;;;;;;;;;;14.00;99.90;;;;;;5071723;28;19974;-77
2023/05/02 12:09:48;;;;;;;;;;;12.90;98.10;;;;;;5074470;28;20014;-76
2023/05/02 12:12:18;;;;;;;;;;;13.30;99.90;;;;;;5067026;28;20027;-76
2023/05/02 12:14:43;;;;;;;;;;;13.20;99.90;;;;;;5067308;28;20042;-76
2023/05/02 12:17:09;;;;;;;;;;;13.30;99.90;;;;;;5071967;28;20428;-76
2023/05/02 12:19:36;;;;;;;;;;;13.50;99.90;;;;;;5073930;28;20710;-76
2023/05/02 12:22:02;;;;;;;;;;;13.90;99.90;;;;;;5070602;28;19924;-76
2023/05/02 12:24:28;;;;;;;;;;;13.70;99.90;;;;;;5080234;28;19931;-76
2023/05/02 12:27:09;;;;;;;;;;;13.60;99.90;;;;;;5074022;28;19943;-76
2023/05/02 12:29:45;;;;;;;;;;;13.70;99.90;;;;;;5075052;28;19932;-75
2023/05/02 12:32:11;;;;;;;;;;;13.40;99.90;;;;;;5074748;28;19928;-76
2023/05/02 12:34:37;;;;;;;;;;;13.20;99.90;;;;;;5078745;28;19994;-76
2023/05/02 12:37:03;;;;;;;;;;;13.20;99.90;;;;;;5081529;28;19932;-76
2023/05/02 12:39:36;;;;;;;;;;;13.30;99.90;;;;;;5078879;28;19935;-77
2023/05/02 12:42:08;;;;;;;;;;;13.30;99.90;;;;;;5078268;28;20312;-76
2023/05/02 12:44:35;;;;;;;;;;;13.40;99.90;;;;;;5077891;28;19985;-76
2023/05/02 12:47:00;;;;;;;;;;;13.80;99.90;;;;;;5076899;28;19928;-76
2023/05/02 12:49:26;;;;;;;;;;;13.00;99.90;;;;;;5079890;28;19951;-76
2023/05/02 12:51:52;;;;;;;;;;;13.70;99.90;;;;;;5075912;28;20446;-76
2023/05/02 12:54:21;;;;;;;;;;;13.50;99.90;;;;;;5075743;28;20801;-76
2023/05/02 12:56:47;;;;;;;;;;;13.80;99.90;;;;;;5075577;28;19935;-76
2023/05/02 12:59:30;;;;;;;;;;;13.40;99.90;;;;;;5068165;28;19928;-77
2023/05/02 13:01:56;;;;;;;;;;;13.20;99.90;;;;;;5076892;28;19924;-76
2023/05/02 13:04:32;;;;;;;;;;;13.10;99.90;;;;;;5072683;28;19971;-76
2023/05/02 13:06:57;;;;;;;;;;;13.30;99.90;;;;;;5078120;28;20065;-76
2023/05/02 13:09:23;;;;;;;;;;;13.40;99.90;;;;;;5080054;28;20027;-76
2023/05/02 13:11:49;;;;;;;;;;;12.70;99.90;;;;;;5058355;28;19990;-76
2023/05/02 13:14:14;;;;;;;;;;;13.20;99.90;;;;;;5071560;28;20047;-76
2023/05/02 13:16:40;;;;;;;;;;;13.00;99.90;;;;;;5069989;28;19932;-76
2023/05/02 13:19:05;;;;;;;;;;;13.00;99.90;;;;;;5077545;28;19932;-76
2023/05/02 13:21:31;;;;;;;;;;;13.30;99.90;;;;;;5076053;28;20019;-77
2023/05/02 13:23:57;;;;;;;;;;;13.00;99.90;;;;;;5077772;28;19929;-77
2023/05/02 13:26:23;;;;;;;;;;;12.90;99.90;;;;;;5075007;28;19966;-76
2023/05/02 13:28:48;;;;;;;;;;;12.70;99.90;;;;;;5074750;28;19975;-76
2023/05/02 13:31:14;;;;;;;;;;;13.00;99.90;;;;;;5073036;28;19929;-76
2023/05/02 13:33:40;;;;;;;;;;;12.70;99.90;;;;;;5091394;28;20385;-76
2023/05/02 13:36:05;;;;;;;;;;;13.20;99.90;;;;;;5075886;28;19928;-76
2023/05/02 13:38:31;;;;;;;;;;;13.10;99.90;;;;;;5072255;28;20308;-77
2023/05/02 13:40:56;;;;;;;;;;;13.30;99.90;;;;;;5076719;28;20471;-78
2023/05/02 13:43:23;;;;;;;;;;;12.70;99.90;;;;;;5077585;28;19929;-76
2023/05/02 13:45:48;;;;;;;;;;;12.70;99.90;;;;;;5074659;28;19928;-77
2023/05/02 13:48:17;;;;;;;;;;;13.10;99.90;;;;;;5075872;28;19970;-75
2023/05/02 13:50:42;;;;;;;;;;;13.40;99.90;;;;;;5074030;28;19928;-77
2023/05/02 13:53:08;;;;;;;;;;;13.50;99.90;;;;;;5055127;28;20362;-75
2023/05/02 13:55:33;;;;;;;;;;;13.40;99.90;;;;;;5073331;28;20342;-76
2023/05/02 13:58:00;;;;;;;;;;;13.40;99.90;;;;;;5073948;28;20034;-77
2023/05/02 14:00:27;;;;;;;;;;;13.30;99.90;;;;;;5069650;28;20376;-76
2023/05/02 14:02:53;;;;;;;;;;;13.20;99.90;;;;;;5073821;28;20354;-75
2023/05/02 14:05:18;;;;;;;;;;;13.40;99.90;;;;;;5068640;28;19950;-77
2023/05/02 14:07:44;;;;;;;;;;;13.30;99.90;;;;;;5067005;28;19931;-75
2023/05/02 14:10:12;;;;;;;;;;;13.30;99.90;;;;;;5072675;28;21573;-77
2023/05/02 14:12:37;;;;;;;;;;;12.70;99.90;;;;;;5073991;28;20111;-76
2023/05/02 14:15:03;;;;;;;;;;;13.20;99.90;;;;;;5054856;28;19981;-76
2023/05/02 14:17:30;;;;;;;;;;;13.00;99.90;;;;;;5058092;28;20632;-76
2023/05/02 14:19:55;;;;;;;;;;;13.30;99.90;;;;;;5074978;28;20393;-76
2023/05/02 14:22:21;;;;;;;;;;;13.00;99.90;;;;;;5064627;28;19935;-76